Radium Springs, NM (88054)

4:06 AM MDT on October 23, 2014 (GMT -0600)
Shalem Colony | Change Station
CLOSE
Current Station
Personal Weather Station
Location: Las Cruces, NM
Elevation: 3944 ft
Nearby Weather Stations

Elev 3944 ft 32.36 °N, 106.85 °W | Updated 1 minute ago

Clear
Clear
53.1 °F
Feels Like 53.1 °F
N
0.0
Wind Variable Wind from SW
Gusts 0.0 mph

Today
High -- | Low -- °F
--% Chance of Precip.
Yesterday
High -- | Low -- °F
Precip. -- in
7:18 AM 6:26 PM
Waning Crescent, 0% visible
Pressure 30.18 in
Visibility 10.0 miles
Clouds Clear
Dew Point 42 °F
Humidity 65%
Rainfall 0.00 in
Snow Depth Not available.
UV 0 out of 12
Pollen 4.90 out of 12
Air Quality Not available.
Flu Activity Sporadic
METAR KLRU 230935Z AUTO 00000KT 10SM CLR 13/10 A3018 RMK AO2 T01250101 PWINO

More Conditions Fewer Conditions

Pressure 30.18 in
Visibility 10.0 miles
Clouds Clear
Dew Point 42 °F
Humidity 65%
Rainfall 0.00 in
Snow Depth Not available.
UV 0 out of 12
Pollen 4.90 out of 12
Air Quality Not available.
Flu Activity Sporadic
METAR KLRU 230935Z AUTO 00000KT 10SM CLR 13/10 A3018 RMK AO2 T01250101 PWINO

More Conditions Fewer Conditions

10-Day Weather Forecast

Almanac

Astronomy

Oct. 23, 2014 Rise Set
Actual Time 7:18 AM MDT 6:26 PM MDT
Civil Twilight 6:53 AM MDT 6:51 PM MDT
Nautical Twilight 6:24 AM MDT 7:20 PM MDT
Astronomical Twilight 5:55 AM MDT 7:48 PM MDT
Moon 7:01 AM MDT 6:29 PM MDT
Length of Visible Light 11h 57m
Length of Day
11h 07m
Tomorrow will be 1m 52s shorter.
Waning Crescent, 0% of the Moon is Illuminated
Today
Waning Crescent
Oct 23
New
Oct 30
First Quarter
Nov 6
Full
Nov 14
Last Quarter

Today's Extremes

State Highs State Lows

Community

WunderPhotos

Upload Photos

1,764,201 photos uploaded!

Nearby

Snow Depth

Station Depth Elevation
McKnight Cabin 0 in 9240 ft
Signal Peak 0 in 8360 ft
Lookout Mountain 0 in 8500 ft
Sierra Blanca 0 in 10280 ft
Silver Creek Divide 1 in 9000 ft

Earthquake Activity

City Distance Mag. Time & Date
No recent earthquake activity has been reported nearby.
Minimum magnitude displayed is 2.5.

Coastal Water Temperatures

Place Temperature
No Stations Reporting

Nearby Weather Stations